sensor_id;sensor_type;location;lat;lon;timestamp;P1;durP1;ratioP1;P2;durP2;ratioP2
43841;SDS011;29495;49.970;20.842;2023-03-22T00:02:25;39.92;;;22.38;;
43841;SDS011;29495;49.970;20.842;2023-03-22T00:04:51;38.67;;;23.77;;
43841;SDS011;29495;49.970;20.842;2023-03-22T00:07:20;41.17;;;23.73;;
43841;SDS011;29495;49.970;20.842;2023-03-22T00:09:50;38.33;;;23.38;;
43841;SDS011;29495;49.970;20.842;2023-03-22T00:12:16;40.00;;;22.85;;
43841;SDS011;29495;49.970;20.842;2023-03-22T00:14:43;40.80;;;24.15;;
43841;SDS011;29495;49.970;20.842;2023-03-22T00:17:09;40.70;;;23.13;;
43841;SDS011;29495;49.970;20.842;2023-03-22T00:19:38;38.77;;;21.80;;
43841;SDS011;29495;49.970;20.842;2023-03-22T00:22:08;36.92;;;22.25;;
43841;SDS011;29495;49.970;20.842;2023-03-22T00:24:35;37.38;;;22.85;;
43841;SDS011;29495;49.970;20.842;2023-03-22T00:27:01;41.50;;;24.08;;
43841;SDS011;29495;49.970;20.842;2023-03-22T00:29:28;43.17;;;23.73;;
43841;SDS011;29495;49.970;20.842;2023-03-22T00:31:54;43.55;;;24.05;;
43841;SDS011;29495;49.970;20.842;2023-03-22T00:34:20;41.97;;;23.92;;
43841;SDS011;29495;49.970;20.842;2023-03-22T00:36:46;49.90;;;26.83;;
43841;SDS011;29495;49.970;20.842;2023-03-22T00:39:12;53.03;;;25.85;;
43841;SDS011;29495;49.970;20.842;2023-03-22T00:41:39;46.10;;;25.63;;
43841;SDS011;29495;49.970;20.842;2023-03-22T00:44:06;47.92;;;26.10;;
43841;SDS011;29495;49.970;20.842;2023-03-22T00:46:32;46.53;;;25.35;;
43841;SDS011;29495;49.970;20.842;2023-03-22T00:48:58;46.50;;;24.85;;
43841;SDS011;29495;49.970;20.842;2023-03-22T00:51:24;44.00;;;24.73;;
43841;SDS011;29495;49.970;20.842;2023-03-22T00:54:03;54.50;;;28.20;;
43841;SDS011;29495;49.970;20.842;2023-03-22T00:56:37;50.03;;;27.33;;
43841;SDS011;29495;49.970;20.842;2023-03-22T00:59:15;52.28;;;26.88;;
43841;SDS011;29495;49.970;20.842;2023-03-22T01:01:47;49.65;;;25.88;;
43841;SDS011;29495;49.970;20.842;2023-03-22T01:04:18;50.47;;;28.10;;
43841;SDS011;29495;49.970;20.842;2023-03-22T01:06:53;51.13;;;26.70;;
43841;SDS011;29495;49.970;20.842;2023-03-22T01:09:24;47.92;;;25.48;;
43841;SDS011;29495;49.970;20.842;2023-03-22T01:11:56;55.83;;;28.63;;
43841;SDS011;29495;49.970;20.842;2023-03-22T01:14:26;54.00;;;29.42;;
43841;SDS011;29495;49.970;20.842;2023-03-22T01:16:58;48.17;;;25.95;;
43841;SDS011;29495;49.970;20.842;2023-03-22T01:21:53;52.65;;;26.38;;
43841;SDS011;29495;49.970;20.842;2023-03-22T01:24:20;54.78;;;27.20;;
43841;SDS011;29495;49.970;20.842;2023-03-22T01:27:11;49.63;;;27.77;;
43841;SDS011;29495;49.970;20.842;2023-03-22T01:36:12;50.63;;;25.85;;
43841;SDS011;29495;49.970;20.842;2023-03-22T01:38:39;50.45;;;25.95;;
43841;SDS011;29495;49.970;20.842;2023-03-22T01:41:05;46.08;;;24.33;;
43841;SDS011;29495;49.970;20.842;2023-03-22T01:46:41;46.75;;;24.75;;
43841;SDS011;29495;49.970;20.842;2023-03-22T01:49:15;41.25;;;23.17;;
43841;SDS011;29495;49.970;20.842;2023-03-22T01:51:51;45.55;;;25.92;;
43841;SDS011;29495;49.970;20.842;2023-03-22T01:54:53;41.10;;;23.05;;
43841;SDS011;29495;49.970;20.842;2023-03-22T01:58:10;42.00;;;22.48;;
43841;SDS011;29495;49.970;20.842;2023-03-22T02:04:26;47.90;;;27.25;;
43841;SDS011;29495;49.970;20.842;2023-03-22T02:07:46;43.30;;;23.90;;
43841;SDS011;29495;49.970;20.842;2023-03-22T02:10:47;41.22;;;22.40;;
43841;SDS011;29495;49.970;20.842;2023-03-22T02:13:51;44.28;;;24.88;;
43841;SDS011;29495;49.970;20.842;2023-03-22T02:44:49;49.97;;;25.95;;
43841;SDS011;29495;49.970;20.842;2023-03-22T03:07:10;48.42;;;25.80;;
43841;SDS011;29495;49.970;20.842;2023-03-22T03:15:33;55.35;;;27.77;;
43841;SDS011;29495;49.970;20.842;2023-03-22T03:43:16;46.78;;;24.40;;
43841;SDS011;29495;49.970;20.842;2023-03-22T03:45:43;57.40;;;29.50;;
43841;SDS011;29495;49.970;20.842;2023-03-22T03:48:18;60.95;;;30.85;;
43841;SDS011;29495;49.970;20.842;2023-03-22T03:50:56;60.20;;;31.98;;
43841;SDS011;29495;49.970;20.842;2023-03-22T03:53:24;49.15;;;25.58;;
43841;SDS011;29495;49.970;20.842;2023-03-22T03:55:59;51.25;;;27.40;;
43841;SDS011;29495;49.970;20.842;2023-03-22T03:58:34;49.53;;;26.80;;
43841;SDS011;29495;49.970;20.842;2023-03-22T04:01:04;42.00;;;23.00;;
43841;SDS011;29495;49.970;20.842;2023-03-22T04:03:50;35.80;;;20.33;;
43841;SDS011;29495;49.970;20.842;2023-03-22T04:11:09;40.00;;;21.13;;
43841;SDS011;29495;49.970;20.842;2023-03-22T08:34:53;18.90;;;12.18;;
43841;SDS011;29495;49.970;20.842;2023-03-22T08:38:02;15.75;;;11.45;;
43841;SDS011;29495;49.970;20.842;2023-03-22T08:41:13;18.02;;;11.85;;
43841;SDS011;29495;49.970;20.842;2023-03-22T08:48:37;13.95;;;10.35;;
43841;SDS011;29495;49.970;20.842;2023-03-22T08:51:20;13.75;;;10.25;;
43841;SDS011;29495;49.970;20.842;2023-03-22T08:54:05;13.40;;;10.15;;
43841;SDS011;29495;49.970;20.842;2023-03-22T08:56:58;15.18;;;10.50;;
43841;SDS011;29495;49.970;20.842;2023-03-22T08:59:38;16.90;;;11.15;;
43841;SDS011;29495;49.970;20.842;2023-03-22T09:02:26;18.02;;;11.38;;
43841;SDS011;29495;49.970;20.842;2023-03-22T09:04:52;17.85;;;10.57;;
43841;SDS011;29495;49.970;20.842;2023-03-22T09:07:19;17.13;;;9.90;;
43841;SDS011;29495;49.970;20.842;2023-03-22T09:09:53;12.95;;;10.27;;
43841;SDS011;29495;49.970;20.842;2023-03-22T09:12:20;14.60;;;9.48;;
43841;SDS011;29495;49.970;20.842;2023-03-22T09:14:46;14.48;;;10.15;;
43841;SDS011;29495;49.970;20.842;2023-03-22T09:17:14;14.90;;;10.23;;
43841;SDS011;29495;49.970;20.842;2023-03-22T09:19:42;12.85;;;9.48;;
43841;SDS011;29495;49.970;20.842;2023-03-22T09:22:10;12.75;;;8.98;;
43841;SDS011;29495;49.970;20.842;2023-03-22T09:24:43;13.00;;;9.52;;
43841;SDS011;29495;49.970;20.842;2023-03-22T09:27:12;14.13;;;9.60;;
43841;SDS011;29495;49.970;20.842;2023-03-22T09:29:38;15.23;;;10.43;;
43841;SDS011;29495;49.970;20.842;2023-03-22T09:32:09;12.85;;;9.68;;
43841;SDS011;29495;49.970;20.842;2023-03-22T09:34:37;12.93;;;8.60;;
43841;SDS011;29495;49.970;20.842;2023-03-22T09:37:04;14.40;;;10.20;;
43841;SDS011;29495;49.970;20.842;2023-03-22T09:39:43;11.52;;;8.45;;
43841;SDS011;29495;49.970;20.842;2023-03-22T09:42:18;10.88;;;7.57;;
43841;SDS011;29495;49.970;20.842;2023-03-22T09:44:51;7.97;;;6.35;;
43841;SDS011;29495;49.970;20.842;2023-03-22T09:47:34;9.57;;;6.93;;
43841;SDS011;29495;49.970;20.842;2023-03-22T09:50:07;8.40;;;6.10;;
43841;SDS011;29495;49.970;20.842;2023-03-22T09:52:42;9.73;;;6.80;;
43841;SDS011;29495;49.970;20.842;2023-03-22T09:55:55;7.75;;;5.78;;
43841;SDS011;29495;49.970;20.842;2023-03-22T10:00:42;9.65;;;6.78;;
43841;SDS011;29495;49.970;20.842;2023-03-22T10:06:02;6.70;;;5.25;;
43841;SDS011;29495;49.970;20.842;2023-03-22T10:11:00;10.10;;;5.78;;
43841;SDS011;29495;49.970;20.842;2023-03-22T10:13:30;4.90;;;3.67;;
43841;SDS011;29495;49.970;20.842;2023-03-22T10:15:59;5.88;;;4.32;;
43841;SDS011;29495;49.970;20.842;2023-03-22T10:18:32;5.15;;;3.47;;
43841;SDS011;29495;49.970;20.842;2023-03-22T10:21:09;4.07;;;3.40;;
43841;SDS011;29495;49.970;20.842;2023-03-22T10:29:23;3.50;;;2.70;;
43841;SDS011;29495;49.970;20.842;2023-03-22T10:31:51;3.03;;;1.98;;
43841;SDS011;29495;49.970;20.842;2023-03-22T10:34:20;1.88;;;1.67;;
43841;SDS011;29495;49.970;20.842;2023-03-22T10:36:49;2.00;;;1.52;;
43841;SDS011;29495;49.970;20.842;2023-03-22T10:44:13;3.63;;;2.83;;
43841;SDS011;29495;49.970;20.842;2023-03-22T10:46:43;4.65;;;3.22;;
43841;SDS011;29495;49.970;20.842;2023-03-22T10:49:12;4.80;;;3.58;;
43841;SDS011;29495;49.970;20.842;2023-03-22T10:51:56;5.05;;;4.10;;
43841;SDS011;29495;49.970;20.842;2023-03-22T10:54:27;4.43;;;3.60;;
43841;SDS011;29495;49.970;20.842;2023-03-22T10:56:53;3.65;;;3.03;;
43841;SDS011;29495;49.970;20.842;2023-03-22T11:02:19;3.90;;;3.20;;
43841;SDS011;29495;49.970;20.842;2023-03-22T11:04:51;4.63;;;3.30;;
43841;SDS011;29495;49.970;20.842;2023-03-22T11:07:32;4.53;;;3.20;;
43841;SDS011;29495;49.970;20.842;2023-03-22T11:12:44;3.10;;;2.70;;
43841;SDS011;29495;49.970;20.842;2023-03-22T11:15:24;3.78;;;2.97;;
43841;SDS011;29495;49.970;20.842;2023-03-22T11:17:51;5.50;;;4.18;;
43841;SDS011;29495;49.970;20.842;2023-03-22T11:20:22;4.50;;;3.20;;
43841;SDS011;29495;49.970;20.842;2023-03-22T11:22:48;5.55;;;4.13;;
43841;SDS011;29495;49.970;20.842;2023-03-22T11:25:37;5.85;;;4.13;;
43841;SDS011;29495;49.970;20.842;2023-03-22T11:28:13;5.20;;;3.72;;
43841;SDS011;29495;49.970;20.842;2023-03-22T11:31:19;4.07;;;3.28;;
43841;SDS011;29495;49.970;20.842;2023-03-22T11:36:20;3.58;;;2.85;;
43841;SDS011;29495;49.970;20.842;2023-03-22T11:38:46;4.47;;;3.40;;
43841;SDS011;29495;49.970;20.842;2023-03-22T11:41:18;4.13;;;3.55;;
43841;SDS011;29495;49.970;20.842;2023-03-22T11:44:33;4.57;;;3.28;;
43841;SDS011;29495;49.970;20.842;2023-03-22T11:49:25;3.63;;;2.90;;
43841;SDS011;29495;49.970;20.842;2023-03-22T11:52:05;2.72;;;2.40;;
43841;SDS011;29495;49.970;20.842;2023-03-22T11:54:36;3.83;;;2.85;;
43841;SDS011;29495;49.970;20.842;2023-03-22T11:57:04;3.20;;;2.35;;
43841;SDS011;29495;49.970;20.842;2023-03-22T11:59:38;2.92;;;2.25;;
43841;SDS011;29495;49.970;20.842;2023-03-22T12:02:19;4.13;;;2.63;;
43841;SDS011;29495;49.970;20.842;2023-03-22T12:04:52;3.67;;;2.78;;
43841;SDS011;29495;49.970;20.842;2023-03-22T12:07:26;3.97;;;2.63;;
43841;SDS011;29495;49.970;20.842;2023-03-22T12:10:02;3.20;;;2.58;;
43841;SDS011;29495;49.970;20.842;2023-03-22T12:12:33;4.45;;;3.10;;
43841;SDS011;29495;49.970;20.842;2023-03-22T12:15:18;3.30;;;2.80;;
43841;SDS011;29495;49.970;20.842;2023-03-22T12:17:52;3.78;;;2.97;;
43841;SDS011;29495;49.970;20.842;2023-03-22T12:23:17;3.30;;;2.38;;
43841;SDS011;29495;49.970;20.842;2023-03-22T12:25:48;4.03;;;2.70;;
43841;SDS011;29495;49.970;20.842;2023-03-22T12:28:22;4.07;;;3.00;;
43841;SDS011;29495;49.970;20.842;2023-03-22T12:31:21;4.57;;;3.50;;
43841;SDS011;29495;49.970;20.842;2023-03-22T12:33:56;3.67;;;2.95;;
43841;SDS011;29495;49.970;20.842;2023-03-22T12:36:44;4.95;;;3.63;;
43841;SDS011;29495;49.970;20.842;2023-03-22T12:41:47;4.70;;;3.00;;
43841;SDS011;29495;49.970;20.842;2023-03-22T12:44:17;4.65;;;3.38;;
43841;SDS011;29495;49.970;20.842;2023-03-22T12:46:52;4.05;;;2.88;;
43841;SDS011;29495;49.970;20.842;2023-03-22T12:51:53;3.55;;;2.67;;
43841;SDS011;29495;49.970;20.842;2023-03-22T12:54:24;4.30;;;3.25;;
43841;SDS011;29495;49.970;20.842;2023-03-22T12:56:50;3.60;;;2.63;;
43841;SDS011;29495;49.970;20.842;2023-03-22T12:59:22;3.75;;;2.30;;
43841;SDS011;29495;49.970;20.842;2023-03-22T13:09:55;3.63;;;3.15;;
43841;SDS011;29495;49.970;20.842;2023-03-22T13:22:28;4.00;;;2.83;;
43841;SDS011;29495;49.970;20.842;2023-03-22T13:33:17;3.83;;;3.00;;
43841;SDS011;29495;49.970;20.842;2023-03-22T13:35:57;3.15;;;2.72;;
43841;SDS011;29495;49.970;20.842;2023-03-22T13:43:34;4.25;;;3.20;;
43841;SDS011;29495;49.970;20.842;2023-03-22T13:49:08;5.38;;;3.35;;
43841;SDS011;29495;49.970;20.842;2023-03-22T13:51:59;4.35;;;3.05;;
43841;SDS011;29495;49.970;20.842;2023-03-22T13:54:49;3.60;;;2.75;;
43841;SDS011;29495;49.970;20.842;2023-03-22T14:00:39;5.20;;;2.85;;
43841;SDS011;29495;49.970;20.842;2023-03-22T14:27:51;4.50;;;3.22;;
43841;SDS011;29495;49.970;20.842;2023-03-22T14:31:41;4.80;;;3.67;;
43841;SDS011;29495;49.970;20.842;2023-03-22T15:23:45;4.28;;;3.00;;
43841;SDS011;29495;49.970;20.842;2023-03-22T15:39:02;4.32;;;3.25;;
43841;SDS011;29495;49.970;20.842;2023-03-22T15:45:46;4.85;;;3.50;;
43841;SDS011;29495;49.970;20.842;2023-03-22T16:26:48;4.47;;;2.72;;
43841;SDS011;29495;49.970;20.842;2023-03-22T16:57:30;5.70;;;2.80;;
43841;SDS011;29495;49.970;20.842;2023-03-22T17:15:35;7.07;;;4.28;;
43841;SDS011;29495;49.970;20.842;2023-03-22T17:18:22;6.03;;;4.22;;
43841;SDS011;29495;49.970;20.842;2023-03-22T17:21:08;7.60;;;5.15;;
43841;SDS011;29495;49.970;20.842;2023-03-22T17:24:22;9.43;;;5.25;;
43841;SDS011;29495;49.970;20.842;2023-03-22T17:27:02;11.07;;;5.72;;
43841;SDS011;29495;49.970;20.842;2023-03-22T17:30:01;11.07;;;6.18;;
43841;SDS011;29495;49.970;20.842;2023-03-22T17:38:19;14.50;;;7.15;;
43841;SDS011;29495;49.970;20.842;2023-03-22T17:41:00;15.85;;;8.18;;
43841;SDS011;29495;49.970;20.842;2023-03-22T17:47:26;13.15;;;7.22;;
43841;SDS011;29495;49.970;20.842;2023-03-22T17:50:40;10.23;;;6.25;;
43841;SDS011;29495;49.970;20.842;2023-03-22T17:53:37;11.05;;;6.20;;
43841;SDS011;29495;49.970;20.842;2023-03-22T17:56:20;12.50;;;6.88;;
43841;SDS011;29495;49.970;20.842;2023-03-22T17:59:06;9.77;;;5.68;;
43841;SDS011;29495;49.970;20.842;2023-03-22T18:19:07;10.82;;;6.53;;
43841;SDS011;29495;49.970;20.842;2023-03-22T18:21:50;10.05;;;6.18;;
43841;SDS011;29495;49.970;20.842;2023-03-22T18:24:27;10.55;;;5.72;;
43841;SDS011;29495;49.970;20.842;2023-03-22T18:27:21;8.98;;;5.65;;
43841;SDS011;29495;49.970;20.842;2023-03-22T18:30:07;11.63;;;6.57;;
43841;SDS011;29495;49.970;20.842;2023-03-22T18:33:32;11.73;;;6.88;;
43841;SDS011;29495;49.970;20.842;2023-03-22T18:36:41;13.05;;;7.15;;
43841;SDS011;29495;49.970;20.842;2023-03-22T18:47:41;14.52;;;8.10;;
43841;SDS011;29495;49.970;20.842;2023-03-22T18:50:27;13.35;;;8.32;;
43841;SDS011;29495;49.970;20.842;2023-03-22T18:53:04;16.45;;;8.43;;
43841;SDS011;29495;49.970;20.842;2023-03-22T18:55:35;16.83;;;9.10;;
43841;SDS011;29495;49.970;20.842;2023-03-22T19:10:23;23.92;;;13.27;;
43841;SDS011;29495;49.970;20.842;2023-03-22T19:14:13;23.75;;;13.20;;
43841;SDS011;29495;49.970;20.842;2023-03-22T19:21:15;25.65;;;14.30;;
43841;SDS011;29495;49.970;20.842;2023-03-22T19:24:25;26.38;;;14.90;;
43841;SDS011;29495;49.970;20.842;2023-03-22T19:27:41;26.38;;;14.15;;
43841;SDS011;29495;49.970;20.842;2023-03-22T19:30:40;28.02;;;14.73;;
43841;SDS011;29495;49.970;20.842;2023-03-22T19:33:31;28.50;;;16.33;;
43841;SDS011;29495;49.970;20.842;2023-03-22T19:36:11;30.83;;;15.63;;
43841;SDS011;29495;49.970;20.842;2023-03-22T19:38:41;27.95;;;14.90;;
43841;SDS011;29495;49.970;20.842;2023-03-22T19:43:46;30.77;;;16.30;;
43841;SDS011;29495;49.970;20.842;2023-03-22T19:46:12;30.83;;;16.27;;
43841;SDS011;29495;49.970;20.842;2023-03-22T19:48:55;28.90;;;15.13;;
43841;SDS011;29495;49.970;20.842;2023-03-22T19:51:53;31.33;;;16.05;;
43841;SDS011;29495;49.970;20.842;2023-03-22T19:54:50;28.63;;;15.25;;
43841;SDS011;29495;49.970;20.842;2023-03-22T19:58:05;29.90;;;15.80;;
43841;SDS011;29495;49.970;20.842;2023-03-22T20:00:40;26.85;;;14.13;;
43841;SDS011;29495;49.970;20.842;2023-03-22T20:03:53;26.33;;;13.23;;
43841;SDS011;29495;49.970;20.842;2023-03-22T20:06:52;22.70;;;12.40;;
43841;SDS011;29495;49.970;20.842;2023-03-22T20:09:56;25.27;;;13.30;;
43841;SDS011;29495;49.970;20.842;2023-03-22T20:12:25;21.50;;;12.32;;
43841;SDS011;29495;49.970;20.842;2023-03-22T20:14:56;18.30;;;10.55;;
43841;SDS011;29495;49.970;20.842;2023-03-22T20:17:34;20.02;;;11.52;;
43841;SDS011;29495;49.970;20.842;2023-03-22T20:20:12;19.73;;;11.35;;
43841;SDS011;29495;49.970;20.842;2023-03-22T20:23:06;22.42;;;12.90;;
43841;SDS011;29495;49.970;20.842;2023-03-22T20:29:17;18.95;;;11.68;;
43841;SDS011;29495;49.970;20.842;2023-03-22T20:35:57;17.20;;;10.60;;
43841;SDS011;29495;49.970;20.842;2023-03-22T20:46:36;17.95;;;9.65;;
43841;SDS011;29495;49.970;20.842;2023-03-22T20:49:25;17.98;;;10.38;;
43841;SDS011;29495;49.970;20.842;2023-03-22T21:04:18;15.40;;;9.25;;
43841;SDS011;29495;49.970;20.842;2023-03-22T21:13:47;17.05;;;9.65;;
43841;SDS011;29495;49.970;20.842;2023-03-22T21:28:29;16.30;;;9.25;;
43841;SDS011;29495;49.970;20.842;2023-03-22T21:31:53;15.77;;;9.10;;
43841;SDS011;29495;49.970;20.842;2023-03-22T21:47:45;15.63;;;8.82;;
43841;SDS011;29495;49.970;20.842;2023-03-22T21:50:56;14.25;;;8.32;;
43841;SDS011;29495;49.970;20.842;2023-03-22T22:02:50;13.65;;;8.48;;
43841;SDS011;29495;49.970;20.842;2023-03-22T22:09:37;13.82;;;8.55;;
43841;SDS011;29495;49.970;20.842;2023-03-22T22:13:46;14.13;;;7.97;;
43841;SDS011;29495;49.970;20.842;2023-03-22T22:16:36;14.13;;;7.80;;
43841;SDS011;29495;49.970;20.842;2023-03-22T22:26:58;13.52;;;8.05;;
43841;SDS011;29495;49.970;20.842;2023-03-22T22:29:37;14.20;;;8.30;;
43841;SDS011;29495;49.970;20.842;2023-03-22T22:32:11;12.57;;;6.97;;
43841;SDS011;29495;49.970;20.842;2023-03-22T22:34:42;13.13;;;7.75;;
43841;SDS011;29495;49.970;20.842;2023-03-22T22:37:11;13.48;;;7.45;;
43841;SDS011;29495;49.970;20.842;2023-03-22T22:39:43;14.85;;;7.70;;
43841;SDS011;29495;49.970;20.842;2023-03-22T23:04:45;12.10;;;7.50;;
43841;SDS011;29495;49.970;20.842;2023-03-22T23:07:18;12.32;;;7.05;;
43841;SDS011;29495;49.970;20.842;2023-03-22T23:09:55;11.40;;;7.10;;
43841;SDS011;29495;49.970;20.842;2023-03-22T23:16:09;9.77;;;6.28;;
43841;SDS011;29495;49.970;20.842;2023-03-22T23:18:41;10.18;;;6.20;;
43841;SDS011;29495;49.970;20.842;2023-03-22T23:24:14;12.23;;;7.88;;
43841;SDS011;29495;49.970;20.842;2023-03-22T23:26:41;11.95;;;7.85;;
43841;SDS011;29495;49.970;20.842;2023-03-22T23:29:30;11.25;;;6.88;;
43841;SDS011;29495;49.970;20.842;2023-03-22T23:40:07;10.25;;;6.32;;
43841;SDS011;29495;49.970;20.842;2023-03-22T23:43:02;10.25;;;7.05;;
43841;SDS011;29495;49.970;20.842;2023-03-22T23:46:38;10.05;;;5.25;;
43841;SDS011;29495;49.970;20.842;2023-03-22T23:49:46;8.88;;;5.38;;
43841;SDS011;29495;49.970;20.842;2023-03-22T23:53:19;10.75;;;6.07;;
